Time;durP1;ratioP1;P1;durP2;ratioP2;P2;SDS_P1;SDS_P2;PMS_P1;PMS_P2;Temp;Humidity;BMP_temperature;BMP_pressure;BME280_temperature;BME280_humidity;BME280_pressure;Samples;Min_cycle;Max_cycle;Signal;HPM_P1;HPM_P2
2024/01/05 00:00:59;;;;;;;23.57;10.77;;;14.50;53.00;;;;;;4984268;28;20472;-77
2024/01/05 00:03:27;;;;;;;19.53;10.60;;;14.60;53.20;;;;;;4993632;28;20517;-78
2024/01/05 00:05:55;;;;;;;25.87;11.20;;;14.50;53.30;;;;;;5001767;28;20520;-77
2024/01/05 00:08:24;;;;;;;20.90;10.00;;;14.50;53.30;;;;;;5003276;28;20477;-77
2024/01/05 00:10:52;;;;;;;21.90;11.17;;;14.50;53.30;;;;;;4992856;28;20473;-77
2024/01/05 00:13:20;;;;;;;20.50;10.30;;;14.50;53.50;;;;;;4984882;28;20496;-76
2024/01/05 00:15:48;;;;;;;18.00;9.87;;;14.50;53.60;;;;;;5005746;28;20463;-77
2024/01/05 00:18:18;;;;;;;19.53;10.73;;;14.50;53.60;;;;;;5009614;28;20476;-76
2024/01/05 00:20:46;;;;;;;19.13;10.20;;;14.60;53.60;;;;;;4973383;28;20453;-76
2024/01/05 00:23:14;;;;;;;21.80;9.43;;;14.50;53.60;;;;;;4973082;28;20476;-76
2024/01/05 00:25:43;;;;;;;16.03;9.03;;;14.50;53.60;;;;;;4973617;28;20478;-77
2024/01/05 00:28:11;;;;;;;16.40;8.90;;;14.60;53.80;;;;;;4973189;28;20454;-75
2024/01/05 00:30:39;;;;;;;20.90;10.03;;;14.50;53.80;;;;;;4973058;28;20470;-76
2024/01/05 00:33:07;;;;;;;16.40;8.70;;;14.60;54.00;;;;;;4973522;28;20488;-77
2024/01/05 00:35:37;;;;;;;14.30;8.50;;;14.50;53.90;;;;;;4973317;28;20452;-76
2024/01/05 00:38:05;;;;;;;15.87;9.10;;;14.50;53.90;;;;;;4968703;28;20525;-77
2024/01/05 00:40:33;;;;;;;17.10;8.97;;;14.50;53.90;;;;;;4972867;28;20545;-77
2024/01/05 00:43:01;;;;;;;14.60;8.20;;;14.50;54.10;;;;;;4973550;28;20525;-76
2024/01/05 00:45:30;;;;;;;18.73;9.00;;;14.50;54.10;;;;;;4973186;28;20446;-76
2024/01/05 00:47:58;;;;;;;14.57;8.40;;;14.50;54.00;;;;;;4973559;28;20454;-77
2024/01/05 00:50:26;;;;;;;16.23;8.30;;;14.50;54.20;;;;;;4977794;28;20470;-77
2024/01/05 00:52:56;;;;;;;12.63;7.67;;;14.50;54.20;;;;;;4977843;28;20509;-76
2024/01/05 00:55:24;;;;;;;15.03;7.50;;;14.50;54.20;;;;;;4985531;28;20511;-76
2024/01/05 00:57:52;;;;;;;12.63;6.93;;;14.50;54.30;;;;;;4983712;28;20437;-75
2024/01/05 01:00:20;;;;;;;13.43;7.50;;;14.50;54.40;;;;;;4980815;28;20498;-76
2024/01/05 01:02:48;;;;;;;11.83;7.50;;;14.50;54.60;;;;;;4985783;28;20471;-77
2024/01/05 01:05:17;;;;;;;13.33;7.30;;;14.50;54.40;;;;;;4991950;28;20489;-77
2024/01/05 01:07:45;;;;;;;13.53;7.67;;;14.50;54.40;;;;;;4990740;28;20481;-77
2024/01/05 01:10:14;;;;;;;12.90;7.17;;;14.40;54.50;;;;;;4984640;28;20448;-76
2024/01/05 01:12:42;;;;;;;10.63;6.67;;;14.40;54.50;;;;;;4982459;28;20910;-77
2024/01/05 01:15:10;;;;;;;11.70;7.03;;;14.40;54.60;;;;;;4982501;28;20486;-76
2024/01/05 01:17:38;;;;;;;11.50;6.33;;;14.40;54.60;;;;;;4976938;28;20435;-76
2024/01/05 01:20:08;;;;;;;15.10;7.17;;;14.40;54.70;;;;;;4981159;28;20442;-77
2024/01/05 01:22:36;;;;;;;11.57;6.67;;;14.40;54.80;;;;;;4980588;28;20457;-76
2024/01/05 01:25:04;;;;;;;10.87;6.33;;;14.40;54.80;;;;;;4983882;28;20449;-76
2024/01/05 01:27:34;;;;;;;10.07;6.13;;;14.50;54.80;;;;;;4983110;28;20464;-77
2024/01/05 01:30:02;;;;;;;11.30;6.30;;;14.40;54.80;;;;;;4979339;28;20449;-77
2024/01/05 01:32:30;;;;;;;11.80;6.80;;;14.40;54.90;;;;;;4984299;28;20490;-77
2024/01/05 01:34:58;;;;;;;9.73;6.23;;;14.40;54.90;;;;;;4987760;28;20445;-75
2024/01/05 01:37:26;;;;;;;10.83;6.03;;;14.40;55.10;;;;;;4987334;28;20442;-76
2024/01/05 01:39:54;;;;;;;9.93;6.33;;;14.40;55.00;;;;;;4980678;28;20522;-77
2024/01/05 01:42:22;;;;;;;9.00;5.70;;;14.50;55.00;;;;;;4985868;28;20532;-76
2024/01/05 01:44:52;;;;;;;8.57;5.93;;;14.40;55.10;;;;;;4978616;28;20443;-76
2024/01/05 01:47:20;;;;;;;8.93;6.03;;;14.40;55.00;;;;;;4983814;28;20449;-76
2024/01/05 01:49:48;;;;;;;8.27;5.80;;;14.40;55.10;;;;;;4983651;28;20529;-77
2024/01/05 01:52:16;;;;;;;9.63;6.10;;;14.40;55.10;;;;;;4982308;28;20533;-76
2024/01/05 01:54:44;;;;;;;8.27;5.47;;;14.40;55.20;;;;;;5002870;28;20463;-77
2024/01/05 01:57:12;;;;;;;8.57;5.30;;;14.40;55.20;;;;;;4986898;28;20513;-77
2024/01/05 01:59:41;;;;;;;8.37;5.43;;;14.40;55.20;;;;;;4980416;28;20455;-77
2024/01/05 02:02:11;;;;;;;7.37;4.90;;;14.40;55.30;;;;;;4983378;28;20517;-76
2024/01/05 02:04:38;;;;;;;8.40;4.97;;;14.30;55.30;;;;;;4987291;28;20469;-77
2024/01/05 02:07:07;;;;;;;8.63;4.97;;;14.30;55.30;;;;;;4988084;28;20434;-77
2024/01/05 02:09:35;;;;;;;8.90;4.40;;;14.40;55.30;;;;;;4983421;28;20484;-77
2024/01/05 02:12:04;;;;;;;10.60;5.50;;;14.30;55.40;;;;;;4981329;28;20482;-77
2024/01/05 02:14:32;;;;;;;8.97;5.23;;;14.40;55.50;;;;;;4985160;28;20470;-77
2024/01/05 02:17:00;;;;;;;8.20;5.20;;;14.30;55.60;;;;;;4980638;28;20485;-77
2024/01/05 02:19:30;;;;;;;8.20;4.80;;;14.30;55.50;;;;;;4982609;28;20533;-77
2024/01/05 02:21:58;;;;;;;6.23;4.60;;;14.30;55.40;;;;;;4988456;28;20442;-78
2024/01/05 02:24:28;;;;;;;6.33;4.77;;;14.30;55.50;;;;;;4984602;28;20489;-77
2024/01/05 02:26:56;;;;;;;7.17;4.93;;;14.30;55.50;;;;;;4975892;28;20453;-77
2024/01/05 02:29:24;;;;;;;6.70;5.10;;;14.20;55.60;;;;;;4975120;28;20450;-76
2024/01/05 02:31:53;;;;;;;6.83;4.87;;;14.20;55.70;;;;;;4978821;28;20564;-77
2024/01/05 02:34:21;;;;;;;5.90;4.33;;;14.30;55.70;;;;;;4994952;28;20548;-77
2024/01/05 02:36:49;;;;;;;8.40;4.67;;;14.30;55.80;;;;;;4995351;28;20448;-76
2024/01/05 02:39:18;;;;;;;7.43;4.80;;;14.30;55.80;;;;;;4995286;28;20480;-76
2024/01/05 02:41:47;;;;;;;7.87;5.10;;;14.20;55.90;;;;;;4994838;28;20480;-76
2024/01/05 02:44:15;;;;;;;7.50;4.60;;;14.20;55.80;;;;;;4995186;28;21014;-76
2024/01/05 02:46:43;;;;;;;5.10;4.60;;;14.20;55.90;;;;;;4995038;28;20479;-77
2024/01/05 02:49:12;;;;;;;7.00;4.40;;;14.20;55.80;;;;;;4993830;28;20453;-78
2024/01/05 02:51:40;;;;;;;8.67;5.00;;;14.20;55.80;;;;;;4994503;28;20470;-77
2024/01/05 02:54:08;;;;;;;10.00;6.50;;;14.20;55.80;;;;;;4994812;28;20476;-77
2024/01/05 02:56:36;;;;;;;9.10;6.00;;;14.20;55.70;;;;;;4995181;28;20449;-77
2024/01/05 02:59:06;;;;;;;9.73;6.10;;;14.20;55.80;;;;;;4995653;28;20485;-77
2024/01/05 03:01:34;;;;;;;11.03;6.50;;;14.20;55.90;;;;;;4995223;28;20548;-76
2024/01/05 03:04:02;;;;;;;11.43;7.30;;;14.20;55.90;;;;;;4995069;28;20485;-76
2024/01/05 03:06:30;;;;;;;12.93;8.47;;;14.20;56.10;;;;;;4976131;28;20438;-76
2024/01/05 03:08:59;;;;;;;13.20;8.50;;;14.20;56.00;;;;;;4976624;28;20444;-76
2024/01/05 03:11:27;;;;;;;15.57;9.47;;;14.20;56.00;;;;;;4975251;28;20441;-76
2024/01/05 03:13:55;;;;;;;14.23;8.70;;;14.10;56.10;;;;;;4976047;28;20470;-76
2024/01/05 03:16:25;;;;;;;16.30;10.10;;;14.20;56.20;;;;;;4975013;28;20462;-77
2024/01/05 03:18:53;;;;;;;18.13;10.33;;;14.10;56.10;;;;;;4986096;28;20505;-77
2024/01/05 03:21:21;;;;;;;15.47;9.87;;;14.10;56.10;;;;;;4989975;28;20576;-78
2024/01/05 03:23:49;;;;;;;17.50;10.60;;;14.10;56.20;;;;;;4994249;28;20476;-77
2024/01/05 03:26:17;;;;;;;17.83;10.20;;;14.10;56.10;;;;;;4994513;28;20453;-77
2024/01/05 03:28:45;;;;;;;19.07;10.67;;;14.10;56.20;;;;;;4994762;28;20480;-77
2024/01/05 03:31:13;;;;;;;15.87;10.43;;;14.20;56.20;;;;;;4993903;28;20473;-77
2024/01/05 03:33:43;;;;;;;18.83;10.43;;;14.10;56.20;;;;;;4984735;28;20541;-78
2024/01/05 03:36:12;;;;;;;15.90;10.70;;;14.10;56.00;;;;;;4994046;28;20991;-77
2024/01/05 03:38:41;;;;;;;16.77;10.83;;;14.10;56.30;;;;;;4993795;28;20552;-77
2024/01/05 03:41:09;;;;;;;16.53;10.87;;;14.10;56.30;;;;;;4994114;28;20449;-78
2024/01/05 03:43:37;;;;;;;16.60;10.07;;;14.10;56.10;;;;;;4994406;28;20469;-77
2024/01/05 03:46:06;;;;;;;16.10;9.60;;;14.00;56.20;;;;;;4994525;28;20457;-77
2024/01/05 03:48:34;;;;;;;14.50;9.70;;;14.00;56.00;;;;;;4994122;28;21175;-77
2024/01/05 03:51:05;;;;;;;18.03;10.50;;;14.00;56.20;;;;;;4992625;28;20544;-77
2024/01/05 03:53:33;;;;;;;16.40;10.70;;;14.00;56.20;;;;;;4993696;28;20477;-77
2024/01/05 03:56:01;;;;;;;16.27;9.80;;;14.00;56.40;;;;;;4994503;28;20476;-78
2024/01/05 03:58:29;;;;;;;16.37;9.37;;;14.00;56.10;;;;;;4994565;28;20495;-78
2024/01/05 04:00:57;;;;;;;12.23;8.20;;;14.00;56.30;;;;;;4993929;28;20872;-78
2024/01/05 04:03:26;;;;;;;16.50;9.33;;;14.00;56.20;;;;;;4994240;28;20469;-77
2024/01/05 04:05:54;;;;;;;17.17;9.83;;;14.00;56.10;;;;;;4994143;28;20449;-78
2024/01/05 04:08:24;;;;;;;14.40;9.43;;;14.00;56.40;;;;;;4984248;28;20467;-77
2024/01/05 04:10:52;;;;;;;14.20;9.20;;;14.00;56.40;;;;;;4977616;28;20472;-78
2024/01/05 04:13:20;;;;;;;12.93;8.57;;;14.00;56.40;;;;;;4983675;28;20506;-78
2024/01/05 04:15:47;;;;;;;14.20;9.07;;;14.00;56.40;;;;;;4982685;28;20493;-78
2024/01/05 04:18:15;;;;;;;14.30;9.30;;;14.00;56.40;;;;;;4981615;28;20540;-78
2024/01/05 04:20:44;;;;;;;12.47;8.20;;;14.00;56.40;;;;;;4993887;28;20449;-77
2024/01/05 04:23:12;;;;;;;12.23;8.00;;;14.00;56.30;;;;;;4993815;28;20497;-77
2024/01/05 04:25:42;;;;;;;12.20;8.40;;;14.00;56.40;;;;;;4994029;28;20445;-77
2024/01/05 04:28:10;;;;;;;14.00;8.63;;;14.00;56.50;;;;;;4993439;28;20540;-78
2024/01/05 04:30:37;;;;;;;14.17;8.70;;;13.90;56.40;;;;;;4992980;28;20472;-78
2024/01/05 04:33:05;;;;;;;13.60;7.80;;;14.00;56.60;;;;;;4992928;28;20568;-78
2024/01/05 04:35:34;;;;;;;13.60;8.00;;;14.00;56.50;;;;;;4992506;28;20457;-78
2024/01/05 04:38:02;;;;;;;12.83;8.00;;;13.90;56.40;;;;;;4988637;28;20492;-77
2024/01/05 04:40:29;;;;;;;13.47;7.73;;;13.90;56.60;;;;;;4992510;28;20433;-77
2024/01/05 04:42:59;;;;;;;11.90;7.43;;;13.90;56.60;;;;;;4993371;28;20461;-78
2024/01/05 04:45:27;;;;;;;13.67;8.10;;;14.00;56.70;;;;;;4998641;28;20483;-78
2024/01/05 04:47:55;;;;;;;11.17;7.40;;;14.00;56.70;;;;;;4999991;28;20449;-78
2024/01/05 04:50:23;;;;;;;9.63;7.00;;;13.90;56.70;;;;;;4996204;28;20453;-78
2024/01/05 04:52:51;;;;;;;11.40;7.83;;;13.90;56.70;;;;;;4995211;28;20500;-77
2024/01/05 04:55:20;;;;;;;9.00;6.10;;;13.90;56.60;;;;;;4993102;28;20533;-77
2024/01/05 04:57:48;;;;;;;10.63;6.90;;;13.90;56.80;;;;;;4993081;28;20484;-77
2024/01/05 05:00:18;;;;;;;9.97;6.97;;;13.90;56.80;;;;;;4992662;28;20531;-78
2024/01/05 05:05:25;;;;;;;9.90;6.80;;;13.90;56.70;;;;;;4969656;28;20466;-81
2024/01/05 05:07:53;;;;;;;10.57;7.10;;;13.90;56.80;;;;;;4975462;28;20434;-78
2024/01/05 05:10:22;;;;;;;9.07;6.30;;;13.90;56.80;;;;;;4979329;28;20454;-78
2024/01/05 05:12:50;;;;;;;10.00;6.70;;;13.90;56.80;;;;;;4980900;28;20477;-77
2024/01/05 05:15:19;;;;;;;8.40;5.90;;;13.90;56.90;;;;;;4981888;28;20442;-79
2024/01/05 05:17:47;;;;;;;8.70;6.30;;;13.90;56.80;;;;;;4979678;28;20477;-78
2024/01/05 05:20:18;;;;;;;8.60;6.67;;;13.90;56.90;;;;;;4982445;28;20509;-79
2024/01/05 05:22:45;;;;;;;8.90;5.97;;;13.90;56.80;;;;;;4989403;28;20453;-78
2024/01/05 05:25:13;;;;;;;7.80;5.93;;;13.90;57.00;;;;;;4988000;28;20472;-80
2024/01/05 05:27:42;;;;;;;7.50;5.70;;;13.90;56.80;;;;;;4984471;28;20452;-78
2024/01/05 05:30:11;;;;;;;9.10;6.33;;;13.90;56.80;;;;;;4982932;28;20863;-78
2024/01/05 05:32:41;;;;;;;8.10;5.70;;;13.90;56.80;;;;;;4988886;28;20446;-80
2024/01/05 05:35:09;;;;;;;7.53;5.53;;;13.90;56.90;;;;;;4980178;28;20493;-78
2024/01/05 05:37:38;;;;;;;7.07;5.30;;;13.90;56.90;;;;;;4979433;28;20457;-80
2024/01/05 05:40:08;;;;;;;7.60;5.30;;;13.90;56.80;;;;;;4980945;28;20458;-78
2024/01/05 05:42:36;;;;;;;8.50;5.50;;;13.80;56.90;;;;;;4984754;28;20456;-81
2024/01/05 05:45:05;;;;;;;6.70;5.60;;;13.90;56.90;;;;;;4981307;28;20468;-80
2024/01/05 05:47:33;;;;;;;6.30;5.30;;;13.80;57.00;;;;;;4992322;28;20440;-78
2024/01/05 05:50:05;;;;;;;6.77;5.00;;;13.80;56.90;;;;;;4983721;28;20438;-78
2024/01/05 05:52:34;;;;;;;7.70;5.20;;;13.90;57.00;;;;;;4983332;28;20470;-80
2024/01/05 05:55:03;;;;;;;8.17;5.53;;;13.80;57.00;;;;;;4983329;28;20866;-78
2024/01/05 05:57:32;;;;;;;8.40;6.07;;;13.80;56.90;;;;;;4987285;28;20449;-79
2024/01/05 06:00:00;;;;;;;8.90;5.17;;;13.90;57.00;;;;;;4987450;28;20469;-79
2024/01/05 06:02:28;;;;;;;6.40;5.33;;;13.90;57.20;;;;;;4981473;28;20529;-78
2024/01/05 06:04:56;;;;;;;7.50;5.37;;;13.90;56.90;;;;;;4982719;28;20466;-78
2024/01/05 06:07:26;;;;;;;7.07;5.03;;;13.80;57.10;;;;;;4987389;28;20450;-78
2024/01/05 06:09:54;;;;;;;6.10;5.20;;;13.90;57.20;;;;;;4986860;28;20450;-81
2024/01/05 06:12:22;;;;;;;7.10;4.80;;;13.90;57.20;;;;;;4991025;28;20450;-79
2024/01/05 06:14:49;;;;;;;4.90;3.93;;;13.80;57.10;;;;;;4987346;28;20553;-78
2024/01/05 06:17:18;;;;;;;7.43;4.67;;;13.80;57.00;;;;;;5001630;28;20441;-77
2024/01/05 06:19:46;;;;;;;5.07;4.33;;;13.90;57.20;;;;;;4996745;28;20458;-79
2024/01/05 06:22:14;;;;;;;6.00;4.87;;;13.90;57.20;;;;;;4988419;28;20454;-80
2024/01/05 06:24:44;;;;;;;6.40;4.57;;;13.90;57.20;;;;;;4992648;28;20454;-76
2024/01/05 06:27:13;;;;;;;6.00;4.50;;;13.80;57.10;;;;;;4987121;28;20448;-79
2024/01/05 06:29:48;;;;;;;6.77;4.20;;;13.80;57.00;;;;;;4980311;28;20426;-78
2024/01/05 06:32:16;;;;;;;4.90;4.33;;;13.80;57.00;;;;;;4976786;28;20478;-77
2024/01/05 06:34:44;;;;;;;4.93;4.30;;;13.80;57.10;;;;;;4981452;28;20502;-76
2024/01/05 06:37:13;;;;;;;6.10;4.53;;;13.90;57.20;;;;;;4979663;28;20462;-77
2024/01/05 06:39:40;;;;;;;4.50;4.10;;;13.80;57.20;;;;;;4967529;28;20444;-77
2024/01/05 06:42:10;;;;;;;5.93;4.60;;;13.80;57.10;;;;;;4961360;28;20439;-78
2024/01/05 06:44:38;;;;;;;5.90;4.37;;;13.80;57.00;;;;;;4963896;28;20466;-78
2024/01/05 06:47:06;;;;;;;5.60;4.80;;;13.80;57.20;;;;;;4981096;28;20434;-78
2024/01/05 06:49:35;;;;;;;4.57;4.10;;;13.80;57.30;;;;;;4981957;28;20477;-78
2024/01/05 06:52:04;;;;;;;4.67;4.10;;;13.80;57.30;;;;;;4980649;28;20446;-77
2024/01/05 06:54:32;;;;;;;4.53;3.63;;;13.80;57.30;;;;;;4980967;28;20478;-78
2024/01/05 06:57:00;;;;;;;4.20;3.63;;;13.80;57.20;;;;;;4978274;28;20494;-81
2024/01/05 06:59:30;;;;;;;4.90;3.90;;;13.80;57.20;;;;;;4977045;28;20435;-78
2024/01/05 07:01:58;;;;;;;6.00;4.17;;;13.80;57.30;;;;;;4962066;28;20452;-77
2024/01/05 07:04:27;;;;;;;4.27;3.77;;;13.80;57.30;;;;;;4961428;28;20458;-79
2024/01/05 07:06:55;;;;;;;3.90;3.50;;;13.80;57.50;;;;;;4961279;29;20482;-79
2024/01/05 07:09:25;;;;;;;4.83;3.73;;;13.80;57.20;;;;;;4975952;28;20454;-78
2024/01/05 07:11:54;;;;;;;4.03;3.70;;;13.90;57.40;;;;;;4980385;28;20447;-78
2024/01/05 07:14:22;;;;;;;3.83;3.53;;;13.80;57.30;;;;;;4978137;28;20477;-77
2024/01/05 07:16:52;;;;;;;3.97;3.60;;;13.90;57.50;;;;;;4973429;28;20435;-78
2024/01/05 07:19:20;;;;;;;3.90;3.60;;;13.90;57.50;;;;;;4980511;28;20454;-78
2024/01/05 07:21:49;;;;;;;4.87;4.30;;;13.90;57.30;;;;;;4979647;28;20528;-76
2024/01/05 07:24:18;;;;;;;4.37;3.80;;;13.90;57.50;;;;;;4980910;28;20466;-78
2024/01/05 07:26:47;;;;;;;3.80;3.40;;;13.90;57.50;;;;;;4978439;28;20450;-78
2024/01/05 07:29:15;;;;;;;4.00;3.60;;;13.90;57.50;;;;;;4979357;28;20458;-78
2024/01/05 07:31:43;;;;;;;4.87;4.07;;;13.90;58.10;;;;;;4996085;28;20441;-77
2024/01/05 07:34:14;;;;;;;4.20;3.60;;;13.90;57.50;;;;;;4997420;28;20484;-79
2024/01/05 07:36:43;;;;;;;3.33;3.03;;;13.90;57.70;;;;;;4971343;28;20467;-78
2024/01/05 07:39:14;;;;;;;4.40;3.50;;;13.90;57.60;;;;;;4968284;28;20434;-77
2024/01/05 07:41:43;;;;;;;3.90;3.60;;;13.90;57.60;;;;;;4977743;28;20521;-77
2024/01/05 07:44:15;;;;;;;3.87;3.40;;;13.90;57.60;;;;;;4977916;28;20529;-77
2024/01/05 07:46:45;;;;;;;4.60;3.50;;;13.90;57.60;;;;;;4979119;28;20470;-78
2024/01/05 07:49:14;;;;;;;3.70;3.40;;;13.90;57.60;;;;;;4979153;28;20571;-78
2024/01/05 07:51:43;;;;;;;4.10;3.67;;;13.90;57.60;;;;;;4978592;28;20438;-77
2024/01/05 07:54:12;;;;;;;4.27;3.87;;;14.00;57.70;;;;;;4978566;28;20484;-79
2024/01/05 07:56:40;;;;;;;3.37;3.10;;;13.90;57.70;;;;;;4979445;28;20450;-77
2024/01/05 07:59:13;;;;;;;3.50;3.13;;;14.00;57.80;;;;;;4978259;28;20457;-78
2024/01/05 08:01:42;;;;;;;3.67;3.30;;;14.00;57.80;;;;;;4976474;28;20466;-77
2024/01/05 08:04:11;;;;;;;3.40;3.10;;;14.00;57.80;;;;;;5000270;28;20473;-78
2024/01/05 08:06:41;;;;;;;3.70;3.40;;;14.00;58.00;;;;;;4992649;28;20457;-78
2024/01/05 08:09:09;;;;;;;3.40;3.20;;;14.00;57.90;;;;;;4971850;28;20458;-78
2024/01/05 08:11:38;;;;;;;3.50;3.20;;;14.00;57.80;;;;;;4979058;28;20458;-77
2024/01/05 08:14:07;;;;;;;3.60;3.00;;;14.00;57.90;;;;;;4982351;28;20497;-78
2024/01/05 08:16:35;;;;;;;3.37;3.17;;;14.00;57.80;;;;;;4979584;28;20450;-78
2024/01/05 08:19:04;;;;;;;3.73;3.43;;;14.00;58.00;;;;;;4982714;28;20450;-80
2024/01/05 08:21:36;;;;;;;3.53;3.23;;;14.00;58.00;;;;;;4983201;28;20544;-78
2024/01/05 08:24:06;;;;;;;3.27;2.97;;;14.00;58.10;;;;;;4975300;28;20468;-77
2024/01/05 08:26:34;;;;;;;3.77;3.47;;;14.00;58.00;;;;;;4978915;28;20485;-79
2024/01/05 08:29:02;;;;;;;3.33;3.13;;;14.00;57.90;;;;;;4974634;28;20453;-78
2024/01/05 08:31:30;;;;;;;3.63;3.33;;;14.00;57.90;;;;;;4979861;28;20502;-76
2024/01/05 08:33:58;;;;;;;3.37;3.10;;;14.00;58.00;;;;;;4980873;28;20484;-78
2024/01/05 08:36:30;;;;;;;4.40;3.90;;;14.00;58.10;;;;;;4980075;28;20474;-78
2024/01/05 08:39:10;;;;;;;2.90;2.70;;;14.00;58.00;;;;;;4976066;28;20543;-77
2024/01/05 08:41:46;;;;;;;4.13;3.30;;;14.00;58.00;;;;;;4983286;28;20450;-80
2024/01/05 08:44:16;;;;;;;3.20;3.00;;;14.10;58.10;;;;;;4969814;28;20477;-78
2024/01/05 08:46:48;;;;;;;3.63;3.33;;;14.00;58.00;;;;;;4968159;28;20453;-77
2024/01/05 08:49:25;;;;;;;3.50;3.20;;;14.00;58.00;;;;;;4967464;28;20445;-77
2024/01/05 08:52:01;;;;;;;3.00;2.77;;;14.10;58.00;;;;;;4978132;28;20472;-79
2024/01/05 08:54:33;;;;;;;3.33;3.07;;;14.10;58.20;;;;;;4973020;28;20521;-76
2024/01/05 08:57:02;;;;;;;3.87;3.50;;;14.00;58.00;;;;;;4973474;28;20534;-78
2024/01/05 08:59:30;;;;;;;3.40;3.10;;;14.10;58.00;;;;;;4976894;28;20497;-78
2024/01/05 09:01:58;;;;;;;3.33;3.03;;;14.10;58.10;;;;;;4975637;28;20454;-77
2024/01/05 09:04:26;;;;;;;3.10;2.90;;;14.00;58.10;;;;;;4975545;28;20488;-78
2024/01/05 09:06:55;;;;;;;3.30;3.10;;;14.00;58.30;;;;;;4978222;28;20442;-75
2024/01/05 09:09:23;;;;;;;3.20;3.00;;;14.00;58.40;;;;;;4975175;28;20453;-75
2024/01/05 09:11:52;;;;;;;3.60;2.60;;;14.00;58.30;;;;;;4976042;28;20449;-75
2024/01/05 09:14:21;;;;;;;3.07;2.87;;;14.10;58.40;;;;;;4975239;28;20477;-75
2024/01/05 09:16:49;;;;;;;2.90;2.70;;;14.10;58.50;;;;;;4976190;28;20513;-76
2024/01/05 09:19:18;;;;;;;2.90;2.70;;;14.10;58.30;;;;;;4977831;28;20498;-76
2024/01/05 09:21:49;;;;;;;2.73;2.53;;;14.10;58.40;;;;;;4976573;28;20444;-76
2024/01/05 09:24:17;;;;;;;4.50;3.43;;;14.10;58.50;;;;;;4979496;28;20469;-76
2024/01/05 09:26:46;;;;;;;2.90;2.63;;;14.10;58.30;;;;;;4979295;28;20442;-76
2024/01/05 09:29:16;;;;;;;3.10;2.73;;;14.10;58.40;;;;;;4977391;28;20454;-78
2024/01/05 09:31:47;;;;;;;3.00;2.67;;;14.10;58.40;;;;;;4976379;28;20998;-76
2024/01/05 09:34:16;;;;;;;3.60;3.30;;;14.10;58.50;;;;;;4976381;28;20478;-78
2024/01/05 09:36:45;;;;;;;3.20;2.87;;;14.20;58.60;;;;;;4974197;28;20474;-76
2024/01/05 09:39:13;;;;;;;2.47;2.37;;;14.20;58.60;;;;;;4976433;28;20502;-76
2024/01/05 09:41:42;;;;;;;2.80;2.60;;;14.20;58.60;;;;;;4976324;28;20466;-80
2024/01/05 09:44:10;;;;;;;2.63;2.50;;;14.20;58.60;;;;;;4976432;28;20598;-77
2024/01/05 09:46:40;;;;;;;2.90;2.70;;;14.20;58.50;;;;;;4973475;28;20442;-76
2024/01/05 09:49:09;;;;;;;2.90;2.60;;;14.20;58.60;;;;;;4973587;28;20470;-78
2024/01/05 09:51:37;;;;;;;2.70;2.50;;;14.20;58.60;;;;;;4972970;28;20452;-77
2024/01/05 09:54:05;;;;;;;2.83;2.60;;;14.30;58.70;;;;;;4974653;28;20474;-76
2024/01/05 09:56:33;;;;;;;2.57;2.37;;;14.20;58.60;;;;;;4976518;28;20485;-76
2024/01/05 09:59:02;;;;;;;2.80;2.60;;;14.20;58.60;;;;;;4977397;28;20545;-77
2024/01/05 10:01:30;;;;;;;4.60;2.80;;;14.30;58.60;;;;;;4978255;28;20454;-79
2024/01/05 10:04:01;;;;;;;2.80;2.60;;;14.20;58.60;;;;;;4978849;28;20474;-79
2024/01/05 10:06:30;;;;;;;3.03;2.70;;;14.20;58.60;;;;;;4980031;28;20450;-77
2024/01/05 10:08:59;;;;;;;2.97;2.77;;;14.30;58.60;;;;;;4980129;28;20450;-76
2024/01/05 10:11:30;;;;;;;3.33;2.60;;;14.30;58.70;;;;;;4977914;28;20458;-79
2024/01/05 10:14:05;;;;;;;2.70;2.50;;;14.30;58.60;;;;;;4994867;28;20476;-77
2024/01/05 10:16:36;;;;;;;2.80;2.60;;;14.30;58.70;;;;;;5000424;28;20499;-77
2024/01/05 10:19:13;;;;;;;2.97;2.77;;;14.30;58.70;;;;;;4995252;28;20455;-77
2024/01/05 10:21:43;;;;;;;2.60;2.40;;;14.30;58.70;;;;;;4976038;28;20965;-78
2024/01/05 10:24:22;;;;;;;2.57;2.37;;;14.30;58.70;;;;;;4974792;28;20450;-78
2024/01/05 10:27:01;;;;;;;2.67;2.47;;;14.30;58.80;;;;;;4971922;28;20430;-78
2024/01/05 10:29:30;;;;;;;2.50;2.30;;;14.40;58.80;;;;;;4974246;28;20541;-78
2024/01/05 10:32:11;;;;;;;2.60;2.40;;;14.40;58.90;;;;;;4975662;28;20438;-78
2024/01/05 10:34:40;;;;;;;2.57;2.40;;;14.30;58.80;;;;;;4973884;28;20488;-79
2024/01/05 10:37:09;;;;;;;2.83;2.63;;;14.30;58.70;;;;;;4977183;28;20545;-77
2024/01/05 10:39:37;;;;;;;4.30;2.47;;;14.30;58.80;;;;;;4973525;28;20533;-78
2024/01/05 10:42:21;;;;;;;2.67;2.47;;;14.30;58.90;;;;;;4973064;28;20438;-80
2024/01/05 10:44:51;;;;;;;3.73;3.03;;;14.30;59.00;;;;;;4971054;28;20515;-79
2024/01/05 10:47:20;;;;;;;2.70;2.50;;;14.30;59.00;;;;;;4974944;28;20430;-78
2024/01/05 10:49:50;;;;;;;4.80;2.40;;;14.30;59.00;;;;;;4976447;28;20447;-77
2024/01/05 10:52:19;;;;;;;2.93;2.67;;;14.30;58.80;;;;;;4976314;28;20434;-77
2024/01/05 10:54:49;;;;;;;3.00;2.60;;;14.30;59.00;;;;;;4977885;28;20461;-79
2024/01/05 10:57:18;;;;;;;2.73;2.30;;;14.30;59.20;;;;;;4978093;28;20478;-78
2024/01/05 10:59:46;;;;;;;2.50;2.40;;;14.30;59.20;;;;;;4984730;28;20440;-77
2024/01/05 11:02:19;;;;;;;2.50;2.30;;;14.30;59.30;;;;;;4978017;28;20469;-78
2024/01/05 11:04:56;;;;;;;6.53;2.60;;;14.40;59.40;;;;;;4973235;28;20469;-77
2024/01/05 11:07:24;;;;;;;3.20;2.57;;;14.30;59.30;;;;;;4978335;28;20496;-78
2024/01/05 11:09:58;;;;;;;4.33;2.70;;;14.30;59.20;;;;;;4975094;28;20438;-78
2024/01/05 11:12:34;;;;;;;3.63;2.43;;;14.40;59.20;;;;;;4977619;28;20438;-77
2024/01/05 11:15:10;;;;;;;3.80;2.20;;;14.30;59.20;;;;;;4978518;28;20473;-77
2024/01/05 11:18:02;;;;;;;10.27;2.43;;;14.30;59.30;;;;;;4975320;28;20557;-76
2024/01/05 11:20:51;;;;;;;2.80;2.10;;;14.30;59.40;;;;;;4975054;28;20449;-77
2024/01/05 11:23:20;;;;;;;2.30;2.10;;;14.30;59.50;;;;;;4975954;28;20476;-77
2024/01/05 11:25:49;;;;;;;4.10;2.07;;;14.30;59.30;;;;;;4983154;28;20534;-76
2024/01/05 11:28:44;;;;;;;9.00;2.60;;;14.30;59.40;;;;;;4976940;28;20953;-77
2024/01/05 11:31:12;;;;;;;2.50;2.30;;;14.30;59.60;;;;;;4973690;28;20496;-76
2024/01/05 11:33:47;;;;;;;2.10;1.90;;;14.30;59.60;;;;;;4977313;28;20534;-75
2024/01/05 11:36:50;;;;;;;3.73;2.40;;;14.40;59.80;;;;;;4976450;28;20512;-77
2024/01/05 11:39:40;;;;;;;3.23;1.90;;;14.40;59.80;;;;;;4977364;28;20452;-77
2024/01/05 11:42:08;;;;;;;2.10;1.90;;;14.40;59.70;;;;;;4974472;28;20497;-76
2024/01/05 11:44:37;;;;;;;3.13;2.33;;;14.40;59.70;;;;;;4975607;28;20472;-76
2024/01/05 11:47:05;;;;;;;3.47;2.83;;;14.40;59.80;;;;;;4976715;28;20505;-77
2024/01/05 11:49:37;;;;;;;3.13;2.03;;;14.40;59.70;;;;;;4975607;28;20977;-74
2024/01/05 11:52:06;;;;;;;3.03;1.97;;;14.40;59.70;;;;;;4976359;28;20446;-75
2024/01/05 11:54:33;;;;;;;3.20;2.37;;;14.40;59.80;;;;;;4976177;28;20482;-76
2024/01/05 11:57:03;;;;;;;4.00;2.20;;;14.40;59.70;;;;;;4976418;28;20469;-76
2024/01/05 11:59:31;;;;;;;2.50;1.80;;;14.40;59.80;;;;;;4974141;28;20457;-76
2024/01/05 12:01:59;;;;;;;3.63;2.30;;;14.40;59.80;;;;;;4976266;28;20442;-76
2024/01/05 12:04:27;;;;;;;3.60;2.20;;;14.40;59.70;;;;;;4975097;28;20471;-77
2024/01/05 12:06:56;;;;;;;2.90;2.57;;;14.40;59.70;;;;;;4981506;28;20481;-78
2024/01/05 12:09:24;;;;;;;4.23;1.87;;;14.40;59.80;;;;;;4996647;28;20437;-78
2024/01/05 12:11:53;;;;;;;3.17;2.17;;;14.40;59.80;;;;;;4997693;28;20441;-80
2024/01/05 12:14:28;;;;;;;3.60;2.20;;;14.40;59.80;;;;;;4995922;28;20511;-77
2024/01/05 12:17:14;;;;;;;3.20;2.00;;;14.40;59.90;;;;;;4999112;28;20500;-77
2024/01/05 12:19:42;;;;;;;4.90;1.80;;;14.40;60.00;;;;;;4996142;28;20445;-77
2024/01/05 12:22:11;;;;;;;2.67;2.47;;;14.40;60.00;;;;;;4996765;28;20445;-77
2024/01/05 12:24:39;;;;;;;2.23;2.13;;;14.40;59.80;;;;;;4996655;28;20527;-77
2024/01/05 12:27:07;;;;;;;4.87;2.30;;;14.40;59.80;;;;;;4997128;28;20472;-76
2024/01/05 12:29:37;;;;;;;2.90;2.63;;;14.40;60.00;;;;;;4996216;28;20536;-77
2024/01/05 12:32:07;;;;;;;3.37;2.30;;;14.40;59.90;;;;;;4996360;28;20472;-77
2024/01/05 12:34:36;;;;;;;3.10;2.47;;;14.40;59.90;;;;;;4978664;28;20465;-77
2024/01/05 12:37:07;;;;;;;2.70;2.50;;;14.40;59.70;;;;;;4974917;28;20487;-78
2024/01/05 12:39:36;;;;;;;3.37;2.60;;;14.30;59.90;;;;;;4974390;28;20446;-77
2024/01/05 12:42:04;;;;;;;2.93;2.60;;;14.40;60.00;;;;;;4975436;28;20450;-79
2024/01/05 12:44:32;;;;;;;2.20;2.10;;;14.40;59.90;;;;;;4976529;28;20537;-77
2024/01/05 12:47:02;;;;;;;2.63;2.30;;;14.30;59.90;;;;;;4975988;28;20430;-74
2024/01/05 12:49:31;;;;;;;5.53;2.63;;;14.30;60.10;;;;;;4973840;28;20469;-76
2024/01/05 12:51:58;;;;;;;2.70;2.50;;;14.30;60.00;;;;;;4974254;28;20517;-75
2024/01/05 12:54:27;;;;;;;3.00;2.80;;;14.30;60.20;;;;;;4963198;28;20479;-76
2024/01/05 12:56:55;;;;;;;3.10;2.60;;;14.40;60.40;;;;;;4971938;28;20456;-76